createdAt,value
2023-05-16T00:00:53.332Z,95540.16
2023-05-16T00:01:57.587Z,95544.69
2023-05-16T00:03:01.170Z,95537.50
2023-05-16T00:04:05.155Z,95540.16
2023-05-16T00:05:10.992Z,95534.81
2023-05-16T00:06:16.388Z,95528.41
2023-05-16T00:07:19.382Z,95521.47
2023-05-16T00:08:23.139Z,95520.97
2023-05-16T00:09:26.277Z,95522.03
2023-05-16T00:10:29.713Z,95519.94
2023-05-16T00:11:33.658Z,95523.66
2023-05-16T00:12:37.958Z,95523.75
2023-05-16T00:13:42.524Z,95515.25
2023-05-16T00:14:46.142Z,95513.44
2023-05-16T00:15:48.744Z,95518.03
2023-05-16T00:16:53.495Z,95513.75
2023-05-16T00:17:58.854Z,95514.31
2023-05-16T00:19:02.831Z,95511.16
2023-05-16T00:20:08.093Z,95510.66
2023-05-16T00:21:14.270Z,95503.97
2023-05-16T00:22:18.478Z,95506.41
2023-05-16T00:23:23.091Z,95495.22
2023-05-16T00:24:25.973Z,95503.00
2023-05-16T00:25:30.416Z,95502.50
2023-05-16T00:26:33.122Z,95497.16
2023-05-16T00:27:38.577Z,95492.38
2023-05-16T00:28:41.595Z,95488.38
2023-05-16T00:29:45.529Z,95488.94
2023-05-16T00:30:48.576Z,95481.25
2023-05-16T00:31:52.196Z,95476.16
2023-05-16T00:32:56.310Z,95473.22
2023-05-16T00:33:59.992Z,95470.56
2023-05-16T00:35:02.864Z,95483.63
2023-05-16T00:36:06.935Z,95468.69
2023-05-16T00:37:11.114Z,95476.13
2023-05-16T00:38:15.714Z,95469.69
2023-05-16T00:39:18.516Z,95459.81
2023-05-16T00:40:22.691Z,95462.78
2023-05-16T00:41:26.430Z,95456.34
2023-05-16T00:42:30.443Z,95453.41
2023-05-16T00:43:34.658Z,95455.81
2023-05-16T00:44:37.460Z,95443.53
2023-05-16T00:45:41.323Z,95447.28
2023-05-16T00:46:44.170Z,95441.44
2023-05-16T00:47:47.899Z,95442.28
2023-05-16T00:48:51.960Z,95446.88
2023-05-16T00:49:55.602Z,95437.84
2023-05-16T00:50:58.680Z,95431.47
2023-05-16T00:52:02.959Z,95427.25
2023-05-16T00:53:07.372Z,95432.09
2023-05-16T00:54:13.436Z,95441.16
2023-05-16T00:55:16.542Z,95440.09
2023-05-16T00:56:20.237Z,95431.03
2023-05-16T00:57:22.984Z,95432.09
2023-05-16T00:58:26.980Z,95429.97
2023-05-16T00:59:30.160Z,95434.00
2023-05-16T01:00:36.385Z,95427.63
2023-05-16T01:01:39.807Z,95428.50
2023-05-16T01:02:44.011Z,95433.84
2023-05-16T01:03:47.201Z,95437.38
2023-05-16T01:04:51.961Z,95445.13
2023-05-16T01:05:54.786Z,95430.25
2023-05-16T01:06:58.738Z,95435.09
2023-05-16T01:08:01.894Z,95422.59
2023-05-16T01:09:08.630Z,95428.25
2023-05-16T01:10:12.486Z,95424.81
2023-05-16T01:11:24.550Z,95425.66
2023-05-16T01:12:37.664Z,95426.75
2023-05-16T01:13:50.981Z,95421.72
2023-05-16T01:15:03.119Z,95421.78
2023-05-16T01:16:15.102Z,95431.91
2023-05-16T01:17:24.061Z,95425.53
2023-05-16T01:18:39.402Z,95430.06
2023-05-16T01:19:56.528Z,95423.16
2023-05-16T01:21:04.188Z,95425.31
2023-05-16T01:22:16.659Z,95426.38
2023-05-16T01:23:34.815Z,95427.97
2023-05-16T01:24:52.236Z,95428.53
2023-05-16T01:26:00.157Z,95422.16
2023-05-16T01:27:07.401Z,95418.97
2023-05-16T01:28:11.261Z,95413.66
2023-05-16T01:29:16.122Z,95418.97
2023-05-16T01:30:20.006Z,95422.16
2023-05-16T01:31:25.048Z,95425.63
2023-05-16T01:32:28.847Z,95427.22
2023-05-16T01:33:32.707Z,95430.69
2023-05-16T01:34:35.599Z,95421.88
2023-05-16T01:35:45.489Z,95434.13
2023-05-16T01:36:58.565Z,95429.59
2023-05-16T01:38:11.643Z,95424.25
2023-05-16T01:39:20.346Z,95420.78
2023-05-16T01:40:31.524Z,95410.13
2023-05-16T01:41:42.460Z,95402.44
2023-05-16T01:42:50.300Z,95411.78
2023-05-16T01:43:59.274Z,95404.34
2023-05-16T01:45:12.763Z,95405.66
2023-05-16T01:46:19.407Z,95402.50
2023-05-16T01:47:27.944Z,95402.50
2023-05-16T01:48:36.282Z,95407.81
2023-05-16T01:49:47.797Z,95413.16
2023-05-16T01:50:55.759Z,95403.03
2023-05-16T01:52:07.172Z,95404.63
2023-05-16T01:53:18.206Z,95400.41
2023-05-16T01:54:25.264Z,95403.34
2023-05-16T01:55:44.160Z,95412.16
2023-05-16T01:56:54.557Z,95406.34
2023-05-16T01:58:00.998Z,95405.84
2023-05-16T01:59:04.896Z,95408.25
2023-05-16T02:00:10.400Z,95396.28
2023-05-16T02:01:14.649Z,95395.47
2023-05-16T02:02:21.444Z,95402.13
2023-05-16T02:03:24.415Z,95395.78
2023-05-16T02:04:28.349Z,95400.03
2023-05-16T02:05:31.610Z,95394.47
2023-05-16T02:06:35.435Z,95393.41
2023-05-16T02:07:39.804Z,95396.31
2023-05-16T02:08:43.992Z,95388.88
2023-05-16T02:09:47.004Z,95385.72
2023-05-16T02:10:50.603Z,95388.63
2023-05-16T02:11:53.476Z,95380.13
2023-05-16T02:12:57.400Z,95388.91
2023-05-16T02:14:01.854Z,95372.66
2023-05-16T02:15:06.795Z,95360.44
2023-05-16T02:16:11.728Z,95366.81
2023-05-16T02:17:15.819Z,95354.88
2023-05-16T02:18:19.808Z,95368.44
2023-05-16T02:19:24.084Z,95373.75
2023-05-16T02:20:27.516Z,95358.34
2023-05-16T02:21:31.660Z,95358.63
2023-05-16T02:22:34.883Z,95357.03
2023-05-16T02:23:39.627Z,95354.38
2023-05-16T02:24:42.731Z,95346.94
2023-05-16T02:25:46.688Z,95352.81
2023-05-16T02:26:49.844Z,95343.78
2023-05-16T02:27:53.834Z,95359.19
2023-05-16T02:28:56.657Z,95346.72
2023-05-16T02:30:01.861Z,95342.19
2023-05-16T02:31:05.494Z,95331.03
2023-05-16T02:32:09.551Z,95327.84
2023-05-16T02:33:13.163Z,95336.63
2023-05-16T02:34:17.074Z,95331.59
2023-05-16T02:35:19.648Z,95329.47
2023-05-16T02:36:23.566Z,95329.47
2023-05-16T02:37:26.244Z,95317.78
2023-05-16T02:38:31.359Z,95297.06
2023-05-16T02:39:34.429Z,95320.94
2023-05-16T02:40:38.305Z,95318.28
2023-05-16T02:41:41.030Z,95315.63
2023-05-16T02:42:44.647Z,95321.72
2023-05-16T02:43:48.041Z,95317.22
2023-05-16T02:44:52.483Z,95327.03
2023-05-16T02:45:56.656Z,95320.94
2023-05-16T02:47:00.251Z,95311.91
2023-05-16T02:48:03.521Z,95314.84
2023-05-16T02:49:08.040Z,95309.28
2023-05-16T02:50:11.206Z,95306.63
2023-05-16T02:51:15.038Z,95293.34
2023-05-16T02:52:17.617Z,95307.13
2023-05-16T02:53:21.383Z,95319.38
2023-05-16T02:54:24.746Z,95305.00
2023-05-16T02:55:28.768Z,95307.66
2023-05-16T02:56:31.585Z,95298.63
2023-05-16T02:57:35.725Z,95297.28
2023-05-16T02:58:38.589Z,95297.84
2023-05-16T02:59:43.190Z,95287.19
2023-05-16T03:00:49.582Z,95279.22
2023-05-16T03:02:00.777Z,95281.59
2023-05-16T03:03:08.085Z,95291.97
2023-05-16T03:04:19.369Z,95280.53
2023-05-16T03:05:27.562Z,95282.16
2023-05-16T03:06:33.746Z,95286.13
2023-05-16T03:07:45.951Z,95285.84
2023-05-16T03:08:56.783Z,95284.25
2023-05-16T03:10:05.717Z,95266.72
2023-05-16T03:11:16.158Z,95272.56
2023-05-16T03:12:21.184Z,95277.59
2023-05-16T03:13:30.732Z,95260.88
2023-05-16T03:14:38.433Z,95254.47
2023-05-16T03:15:44.400Z,95259.00
2023-05-16T03:16:48.494Z,95250.25
2023-05-16T03:17:53.044Z,95249.69
2023-05-16T03:18:58.026Z,95248.91
2023-05-16T03:20:01.382Z,95260.34
2023-05-16T03:21:05.598Z,95243.59
2023-05-16T03:22:08.571Z,95235.31
2023-05-16T03:23:12.373Z,95238.28
2023-05-16T03:24:15.847Z,95232.97
2023-05-16T03:25:19.854Z,95237.47
2023-05-16T03:26:23.694Z,95229.50
2023-05-16T03:27:28.945Z,95228.44
2023-05-16T03:28:32.004Z,95227.09
2023-05-16T03:29:36.965Z,95226.88
2023-05-16T03:30:39.579Z,95240.16
2023-05-16T03:31:43.773Z,95227.66
2023-05-16T03:32:46.836Z,95223.66
2023-05-16T03:33:51.988Z,95227.91
2023-05-16T03:34:54.736Z,95230.56
2023-05-16T03:35:59.154Z,95225.25
2023-05-16T03:37:02.868Z,95230.00
2023-05-16T03:38:05.694Z,95227.09
2023-05-16T03:39:09.955Z,95218.84
2023-05-16T03:40:13.523Z,95215.66
2023-05-16T03:41:17.420Z,95221.50
2023-05-16T03:42:20.301Z,95212.44
2023-05-16T03:43:24.015Z,95206.84
2023-05-16T03:44:27.141Z,95195.41
2023-05-16T03:45:31.550Z,95201.78
2023-05-16T03:46:35.498Z,95189.00
2023-05-16T03:47:39.413Z,95201.22
2023-05-16T03:48:41.896Z,95211.06
2023-05-16T03:49:46.905Z,95197.50
2023-05-16T03:50:51.719Z,95198.81
2023-05-16T03:51:56.088Z,95207.31
2023-05-16T03:52:59.703Z,95215.81
2023-05-16T03:54:04.178Z,95203.84
2023-05-16T03:55:08.670Z,95218.44
2023-05-16T03:56:12.975Z,95207.00
2023-05-16T03:57:16.423Z,95218.19
2023-05-16T03:58:20.938Z,95219.78
2023-05-16T03:59:23.978Z,95222.44
2023-05-16T04:00:28.360Z,95220.28
2023-05-16T04:01:31.389Z,95217.34
2023-05-16T04:02:35.550Z,95220.53
2023-05-16T04:03:40.444Z,95210.72
2023-05-16T04:04:43.854Z,95221.84
2023-05-16T04:05:48.877Z,95205.63
2023-05-16T04:06:52.218Z,95208.00
2023-05-16T04:07:55.969Z,95208.53
2023-05-16T04:08:59.188Z,95199.47
2023-05-16T04:10:03.208Z,95215.41
2023-05-16T04:11:06.608Z,95205.78
2023-05-16T04:12:10.848Z,95213.22
2023-05-16T04:13:15.668Z,95212.16
2023-05-16T04:14:19.702Z,95205.78
2023-05-16T04:15:22.609Z,95202.06
2023-05-16T04:16:26.346Z,95203.34
2023-05-16T04:17:29.661Z,95190.84
2023-05-16T04:18:33.793Z,95202.25
2023-05-16T04:19:36.904Z,95187.09
2023-05-16T04:20:43.224Z,95197.25
2023-05-16T04:21:47.368Z,95185.00
2023-05-16T04:22:51.206Z,95194.06
2023-05-16T04:23:54.435Z,95194.84
2023-05-16T04:24:58.512Z,95197.50
2023-05-16T04:26:04.798Z,95185.00
2023-05-16T04:27:09.427Z,95188.44
2023-05-16T04:28:13.804Z,95193.22
2023-05-16T04:29:18.569Z,95190.28
2023-05-16T04:30:22.399Z,95172.19
2023-05-16T04:31:27.081Z,95175.88
2023-05-16T04:32:31.156Z,95178.25
2023-05-16T04:33:34.776Z,95183.81
2023-05-16T04:34:40.493Z,95179.03
2023-05-16T04:35:45.668Z,95163.56
2023-05-16T04:36:53.321Z,95174.19
2023-05-16T04:37:57.354Z,95181.13
2023-05-16T04:39:01.082Z,95160.63
2023-05-16T04:40:08.789Z,95165.41
2023-05-16T04:41:13.582Z,95170.16
2023-05-16T04:42:18.774Z,95160.81
2023-05-16T04:43:21.672Z,95164.50
2023-05-16T04:44:25.516Z,95153.31
2023-05-16T04:45:29.454Z,95158.88
2023-05-16T04:46:33.808Z,95157.53
2023-05-16T04:47:37.358Z,95166.81
2023-05-16T04:48:41.159Z,95158.28
2023-05-16T04:49:44.392Z,95155.03
2023-05-16T04:50:48.350Z,95156.38
2023-05-16T04:51:52.618Z,95157.69
2023-05-16T04:52:56.608Z,95160.84
2023-05-16T04:54:00.140Z,95150.72
2023-05-16T04:55:04.631Z,95152.81
2023-05-16T04:56:08.343Z,95152.25
2023-05-16T04:57:12.779Z,95143.97
2023-05-16T04:58:16.118Z,95138.88
2023-05-16T04:59:20.325Z,95153.47
2023-05-16T05:00:23.712Z,95136.94
2023-05-16T05:01:28.076Z,95137.97
2023-05-16T05:02:30.622Z,95153.38
2023-05-16T05:03:36.145Z,95146.41
2023-05-16T05:04:39.617Z,95150.09
2023-05-16T05:05:43.329Z,95154.06
2023-05-16T05:06:46.934Z,95146.88
2023-05-16T05:07:52.992Z,95147.38
2023-05-16T05:08:56.069Z,95156.97
2023-05-16T05:09:59.939Z,95158.56
2023-05-16T05:11:03.208Z,95158.25
2023-05-16T05:12:08.887Z,95142.81
2023-05-16T05:13:11.966Z,95149.44
2023-05-16T05:14:15.735Z,95145.69
2023-05-16T05:15:19.534Z,95148.28
2023-05-16T05:16:23.459Z,95137.03
2023-05-16T05:17:27.226Z,95138.88
2023-05-16T05:18:31.478Z,95131.38
2023-05-16T05:19:35.294Z,95141.75
2023-05-16T05:20:39.287Z,95130.00
2023-05-16T05:21:42.384Z,95147.59
2023-05-16T05:22:47.208Z,95139.31
2023-05-16T05:23:51.694Z,95133.69
2023-05-16T05:24:56.024Z,95128.84
2023-05-16T05:25:59.177Z,95138.44
2023-05-16T05:27:03.579Z,95130.44
2023-05-16T05:28:07.783Z,95137.38
2023-05-16T05:29:11.313Z,95135.50
2023-05-16T05:30:15.560Z,95135.19
2023-05-16T05:31:19.170Z,95135.19
2023-05-16T05:32:23.179Z,95140.53
2023-05-16T05:33:28.777Z,95152.78
2023-05-16T05:34:33.552Z,95141.56
2023-05-16T05:35:36.176Z,95137.50
2023-05-16T05:36:40.645Z,95135.06
2023-05-16T05:37:43.238Z,95132.63
2023-05-16T05:38:47.824Z,95118.13
2023-05-16T05:39:52.142Z,95109.81
2023-05-16T05:40:56.065Z,95115.56
2023-05-16T05:41:59.210Z,95109.06
2023-05-16T05:43:03.266Z,95111.38
2023-05-16T05:44:07.247Z,95105.97
2023-05-16T05:45:14.840Z,95105.09
2023-05-16T05:46:19.291Z,95097.28
2023-05-16T05:47:23.388Z,95101.78
2023-05-16T05:48:26.647Z,95099.81
2023-05-16T05:49:32.135Z,95106.16
2023-05-16T05:50:35.164Z,95097.84
2023-05-16T05:51:39.459Z,95104.78
2023-05-16T05:52:43.153Z,95112.78
2023-05-16T05:53:47.264Z,95109.03
2023-05-16T05:54:51.651Z,95113.25
2023-05-16T05:55:55.680Z,95112.19
2023-05-16T05:57:00.478Z,95112.72
2023-05-16T05:58:05.667Z,95110.03
2023-05-16T05:59:11.088Z,95101.22
2023-05-16T06:00:15.525Z,95099.63
2023-05-16T06:01:21.428Z,95100.44
2023-05-16T06:02:25.544Z,95108.72
2023-05-16T06:03:30.072Z,95110.31
2023-05-16T06:04:33.233Z,95109.03
2023-05-16T06:05:37.516Z,95098.63
2023-05-16T06:06:41.890Z,95093.59
2023-05-16T06:07:44.696Z,95094.69
2023-05-16T06:08:49.031Z,95097.63
2023-05-16T06:09:53.284Z,95089.94
2023-05-16T06:10:57.138Z,95093.38
2023-05-16T06:12:00.653Z,95100.59
2023-05-16T06:13:04.728Z,95096.06
2023-05-16T06:14:07.526Z,95111.28
2023-05-16T06:15:12.050Z,95120.38
2023-05-16T06:16:14.968Z,95115.03
2023-05-16T06:17:18.958Z,95105.72
2023-05-16T06:18:23.328Z,95124.69
2023-05-16T06:19:28.253Z,95126.06
2023-05-16T06:20:35.072Z,95121.63
2023-05-16T06:21:42.036Z,95118.44
2023-05-16T06:22:47.074Z,95127.59
2023-05-16T06:23:52.139Z,95120.97
2023-05-16T06:24:57.849Z,95120.75
2023-05-16T06:26:03.810Z,95125.38
2023-05-16T06:27:08.206Z,95141.19
2023-05-16T06:28:12.970Z,95161.50
2023-05-16T06:29:18.039Z,95162.13
2023-05-16T06:30:23.601Z,95147.91
2023-05-16T06:31:27.435Z,95153.16
2023-05-16T06:32:34.216Z,95163.94
2023-05-16T06:33:39.662Z,95150.22
2023-05-16T06:34:44.436Z,95155.44
2023-05-16T06:35:48.893Z,95153.94
2023-05-16T06:36:53.569Z,95148.72
2023-05-16T06:37:56.282Z,95148.28
2023-05-16T06:39:00.450Z,95146.72
2023-05-16T06:40:07.073Z,95155.28
2023-05-16T06:41:11.158Z,95147.34
2023-05-16T06:42:13.936Z,95148.97
2023-05-16T06:43:18.325Z,95138.63
2023-05-16T06:44:22.361Z,95150.34
2023-05-16T06:45:26.595Z,95154.06
2023-05-16T06:46:29.781Z,95158.06
2023-05-16T06:47:34.160Z,95151.13
2023-05-16T06:48:37.803Z,95156.75
2023-05-16T06:49:41.535Z,95151.72
2023-05-16T06:50:48.246Z,95153.88
2023-05-16T06:51:52.404Z,95154.44
2023-05-16T06:52:56.110Z,95151.22
2023-05-16T06:53:59.964Z,95146.19
2023-05-16T06:55:06.810Z,95144.91
2023-05-16T06:56:09.716Z,95148.63
2023-05-16T06:57:14.884Z,95142.50
2023-05-16T06:58:19.024Z,95151.84
2023-05-16T06:59:23.015Z,95140.97
2023-05-16T07:00:27.643Z,95150.31
2023-05-16T07:01:30.565Z,95145.53
2023-05-16T07:02:34.677Z,95141.28
2023-05-16T07:03:37.871Z,95144.50
2023-05-16T07:04:43.200Z,95142.41
2023-05-16T07:05:46.421Z,95138.69
2023-05-16T07:06:50.547Z,95134.44
2023-05-16T07:07:53.562Z,95136.59
2023-05-16T07:08:57.613Z,95140.84
2023-05-16T07:10:01.995Z,95142.97
2023-05-16T07:11:07.088Z,95140.63
2023-05-16T07:12:11.344Z,95138.22
2023-05-16T07:13:16.325Z,95138.22
2023-05-16T07:14:19.311Z,95131.31
2023-05-16T07:15:23.567Z,95136.63
2023-05-16T07:16:28.706Z,95128.63
2023-05-16T07:17:33.255Z,95140.38
2023-05-16T07:18:37.816Z,95135.59
2023-05-16T07:19:42.205Z,95140.13
2023-05-16T07:20:46.314Z,95138.78
2023-05-16T07:21:49.806Z,95149.41
2023-05-16T07:22:53.856Z,95143.84
2023-05-16T07:23:57.032Z,95159.50
2023-05-16T07:25:01.740Z,95152.03
2023-05-16T07:26:06.713Z,95158.94
2023-05-16T07:27:10.881Z,95159.47
2023-05-16T07:28:15.577Z,95156.25
2023-05-16T07:29:19.427Z,95170.06
2023-05-16T07:30:23.972Z,95164.19
2023-05-16T07:31:28.304Z,95178.31
2023-05-16T07:32:31.924Z,95178.00
2023-05-16T07:33:36.134Z,95179.59
2023-05-16T07:34:39.861Z,95189.44
2023-05-16T07:35:43.140Z,95191.53
2023-05-16T07:36:46.911Z,95189.13
2023-05-16T07:37:49.894Z,95201.06
2023-05-16T07:38:53.383Z,95197.59
2023-05-16T07:39:56.948Z,95184.03
2023-05-16T07:41:00.725Z,95192.25
2023-05-16T07:42:05.890Z,95183.72
2023-05-16T07:43:10.088Z,95180.75
2023-05-16T07:44:14.064Z,95177.25
2023-05-16T07:45:19.419Z,95176.19
2023-05-16T07:46:23.610Z,95174.03
2023-05-16T07:47:27.278Z,95171.91
2023-05-16T07:48:31.548Z,95169.78
2023-05-16T07:49:35.826Z,95164.69
2023-05-16T07:50:38.935Z,95163.34
2023-05-16T07:51:43.027Z,95156.66
2023-05-16T07:52:45.978Z,95168.59
2023-05-16T07:53:49.879Z,95160.03
2023-05-16T07:54:52.824Z,95170.13
2023-05-16T07:55:57.060Z,95168.00
2023-05-16T07:57:01.628Z,95163.69
2023-05-16T07:58:06.754Z,95159.38
2023-05-16T07:59:10.394Z,95154.84
2023-05-16T08:00:15.012Z,95163.06
2023-05-16T08:01:19.323Z,95160.66
2023-05-16T08:02:25.974Z,95154.75
2023-05-16T08:03:29.958Z,95156.03
2023-05-16T08:04:33.325Z,95159.50
2023-05-16T08:05:37.142Z,95157.13
2023-05-16T08:06:41.013Z,95157.63
2023-05-16T08:07:44.838Z,95148.59
2023-05-16T08:08:48.503Z,95158.13
2023-05-16T08:09:52.097Z,95156.00
2023-05-16T08:10:56.005Z,95148.81
2023-05-16T08:12:03.559Z,95148.28
2023-05-16T08:13:10.303Z,95161.34
2023-05-16T08:14:14.622Z,95146.72
2023-05-16T08:15:18.399Z,95152.81
2023-05-16T08:16:21.751Z,95153.91
2023-05-16T08:17:25.892Z,95151.25
2023-05-16T08:18:28.812Z,95154.72
2023-05-16T08:19:33.204Z,95141.38
2023-05-16T08:20:36.702Z,95143.25
2023-05-16T08:21:40.907Z,95143.75
2023-05-16T08:22:45.106Z,95133.88
2023-05-16T08:23:49.471Z,95146.91
2023-05-16T08:24:52.214Z,95141.59
2023-05-16T08:25:55.843Z,95132.53
2023-05-16T08:26:58.734Z,95134.91
2023-05-16T08:28:03.406Z,95130.88
2023-05-16T08:29:09.195Z,95134.03
2023-05-16T08:30:13.504Z,95142.28
2023-05-16T08:31:17.707Z,95144.66
2023-05-16T08:32:20.572Z,95149.44
2023-05-16T08:33:24.753Z,95136.59
2023-05-16T08:34:27.880Z,95137.63
2023-05-16T08:35:31.696Z,95142.38
2023-05-16T08:36:36.682Z,95138.66
2023-05-16T08:37:40.508Z,95133.81
2023-05-16T08:38:43.569Z,95139.94
2023-05-16T08:39:47.731Z,95142.84
2023-05-16T08:40:50.984Z,95144.44
2023-05-16T08:41:54.831Z,95147.59
2023-05-16T08:43:00.065Z,95144.34
2023-05-16T08:44:03.633Z,95152.34
2023-05-16T08:45:10.383Z,95141.09
2023-05-16T08:46:13.642Z,95143.19
2023-05-16T08:47:22.233Z,95155.97
2023-05-16T08:48:29.058Z,95143.16
2023-05-16T08:49:33.844Z,95141.78
2023-05-16T08:50:38.163Z,95143.59
2023-05-16T08:51:42.452Z,95140.34
2023-05-16T08:52:51.640Z,95131.78
2023-05-16T08:54:03.235Z,95132.78
2023-05-16T08:55:11.719Z,95130.34
2023-05-16T08:56:18.013Z,95126.81
2023-05-16T08:57:22.198Z,95121.72
2023-05-16T08:58:26.940Z,95121.63
2023-05-16T08:59:31.498Z,95121.25
2023-05-16T09:00:36.365Z,95125.44
2023-05-16T09:01:40.697Z,95117.34
2023-05-16T09:02:44.931Z,95120.72
2023-05-16T09:03:50.071Z,95121.16
2023-05-16T09:04:55.968Z,95115.16
2023-05-16T09:06:00.198Z,95118.53
2023-05-16T09:07:05.604Z,95126.97
2023-05-16T09:08:08.563Z,95124.41
2023-05-16T09:09:14.698Z,95123.44
2023-05-16T09:10:19.371Z,95126.25
2023-05-16T09:11:22.468Z,95130.09
2023-05-16T09:12:27.485Z,95118.78
2023-05-16T09:13:30.496Z,95109.25
2023-05-16T09:14:35.585Z,95123.81
2023-05-16T09:15:41.282Z,95122.34
2023-05-16T09:16:46.826Z,95120.56
2023-05-16T09:17:50.996Z,95129.19
2023-05-16T09:18:57.370Z,95121.16
2023-05-16T09:20:00.937Z,95120.63
2023-05-16T09:21:05.773Z,95124.69
2023-05-16T09:22:11.563Z,95131.91
2023-05-16T09:23:15.710Z,95135.47
2023-05-16T09:24:27.037Z,95123.09
2023-05-16T09:25:32.937Z,95121.28
2023-05-16T09:26:37.766Z,95135.53
2023-05-16T09:27:42.614Z,95126.56
2023-05-16T09:28:46.484Z,95126.03
2023-05-16T09:29:52.355Z,95129.84
2023-05-16T09:30:59.552Z,95132.19
2023-05-16T09:32:10.371Z,95129.22
2023-05-16T09:33:15.778Z,95128.31
2023-05-16T09:34:24.548Z,95125.25
2023-05-16T09:35:43.002Z,95130.69
2023-05-16T09:36:48.653Z,95117.84
2023-05-16T09:37:53.458Z,95112.44
2023-05-16T09:38:57.503Z,95125.31
2023-05-16T09:40:01.200Z,95112.28
2023-05-16T09:41:05.442Z,95113.22
2023-05-16T09:42:12.977Z,95111.06
2023-05-16T09:43:18.660Z,95110.25
2023-05-16T09:44:22.978Z,95118.09
2023-05-16T09:45:28.302Z,95113.56
2023-05-16T09:46:36.464Z,95115.72
2023-05-16T09:47:46.339Z,95117.13
2023-05-16T09:48:50.675Z,95114.78
2023-05-16T09:49:54.428Z,95118.25
2023-05-16T09:51:03.633Z,95116.34
2023-05-16T09:52:07.769Z,95127.38
2023-05-16T09:53:10.760Z,95124.19
2023-05-16T09:54:15.167Z,95127.78
2023-05-16T09:55:18.609Z,95129.19
2023-05-16T09:56:22.971Z,95131.97
2023-05-16T09:57:27.274Z,95137.66
2023-05-16T09:58:33.163Z,95130.72
2023-05-16T09:59:41.024Z,95126.16
2023-05-16T10:00:43.848Z,95138.44
2023-05-16T10:01:51.672Z,95138.63
2023-05-16T10:02:58.397Z,95131.38
2023-05-16T10:04:02.514Z,95133.44
2023-05-16T10:05:06.189Z,95135.50
2023-05-16T10:06:10.613Z,95138.38
2023-05-16T10:07:16.078Z,95136.03
2023-05-16T10:08:22.647Z,95138.97
2023-05-16T10:09:26.695Z,95133.63
2023-05-16T10:10:31.720Z,95136.03
2023-05-16T10:11:36.087Z,95137.56
2023-05-16T10:12:40.942Z,95133.81
2023-05-16T10:13:50.609Z,95134.63
2023-05-16T10:14:54.788Z,95133.34
2023-05-16T10:16:00.529Z,95133.63
2023-05-16T10:17:07.952Z,95141.97
2023-05-16T10:18:13.534Z,95140.41
2023-05-16T10:19:18.655Z,95138.50
2023-05-16T10:20:21.974Z,95142.78
2023-05-16T10:21:27.836Z,95143.53
2023-05-16T10:22:36.129Z,95141.06
2023-05-16T10:23:42.765Z,95143.13
2023-05-16T10:24:53.886Z,95139.06
2023-05-16T10:25:59.508Z,95140.34
2023-05-16T10:27:03.690Z,95132.78
2023-05-16T10:28:10.648Z,95137.53
2023-05-16T10:29:16.893Z,95143.06
2023-05-16T10:30:20.715Z,95141.38
2023-05-16T10:31:25.992Z,95134.78
2023-05-16T10:32:31.084Z,95134.97
2023-05-16T10:33:39.202Z,95143.97
2023-05-16T10:34:45.292Z,95138.78
2023-05-16T10:35:50.043Z,95142.44
2023-05-16T10:36:54.819Z,95143.75
2023-05-16T10:37:59.976Z,95142.34
2023-05-16T10:39:06.069Z,95143.31
2023-05-16T10:40:10.179Z,95147.91
2023-05-16T10:41:15.252Z,95150.16
2023-05-16T10:42:20.874Z,95154.00
2023-05-16T10:43:27.486Z,95148.47
2023-05-16T10:44:34.841Z,95148.81
2023-05-16T10:45:43.238Z,95149.19
2023-05-16T10:46:49.305Z,95149.53
2023-05-16T10:47:54.801Z,95148.28
2023-05-16T10:48:59.162Z,95146.84
2023-05-16T10:50:03.508Z,95138.97
2023-05-16T10:51:37.439Z,95147.34
2023-05-16T10:52:40.532Z,95136.28
2023-05-16T10:53:45.943Z,95141.22
2023-05-16T10:54:52.070Z,95147.72
2023-05-16T10:56:13.495Z,95133.34
2023-05-16T10:57:22.160Z,95141.44
2023-05-16T10:58:26.423Z,95135.00
2023-05-16T10:59:30.790Z,95142.28
2023-05-16T11:00:33.443Z,95142.44
2023-05-16T11:01:38.150Z,95140.53
2023-05-16T11:02:42.465Z,95143.88
2023-05-16T11:04:10.496Z,95143.88
2023-05-16T11:05:19.207Z,95143.09
2023-05-16T11:06:24.822Z,95140.53
2023-05-16T11:07:34.614Z,95144.50
2023-05-16T11:08:37.417Z,95146.22
2023-05-16T11:09:45.910Z,95147.47
2023-05-16T11:10:50.119Z,95150.16
2023-05-16T11:11:59.731Z,95149.06
2023-05-16T11:13:10.339Z,95150.94
2023-05-16T11:14:23.527Z,95158.00
2023-05-16T11:15:29.937Z,95158.09
2023-05-16T11:16:35.151Z,95151.75
2023-05-16T11:17:44.081Z,95151.25
2023-05-16T11:18:52.579Z,95159.56
2023-05-16T11:20:00.279Z,95157.13
2023-05-16T11:21:05.964Z,95159.00
2023-05-16T11:22:10.484Z,95159.59
2023-05-16T11:23:21.542Z,95158.50
2023-05-16T11:24:32.840Z,95151.34
2023-05-16T11:25:41.307Z,95157.91
2023-05-16T11:26:44.318Z,95153.59
2023-05-16T11:27:49.318Z,95155.00
2023-05-16T11:28:55.805Z,95154.81
2023-05-16T11:30:12.164Z,95156.50
2023-05-16T11:31:17.374Z,95167.97
2023-05-16T11:32:22.148Z,95164.13
2023-05-16T11:33:26.201Z,95170.22
2023-05-16T11:34:30.065Z,95167.63
2023-05-16T11:35:35.149Z,95172.00
2023-05-16T11:36:41.151Z,95174.19
2023-05-16T11:37:45.677Z,95163.50
2023-05-16T11:38:48.721Z,95171.22
2023-05-16T11:39:52.849Z,95175.78
2023-05-16T11:41:01.888Z,95172.78
2023-05-16T11:42:05.960Z,95173.91
2023-05-16T11:43:09.777Z,95181.94
2023-05-16T11:44:12.784Z,95178.94
2023-05-16T11:45:19.300Z,95176.75
2023-05-16T11:46:23.517Z,95190.13
2023-05-16T11:47:28.217Z,95179.13
2023-05-16T11:48:36.676Z,95179.13
2023-05-16T11:49:41.800Z,95179.94
2023-05-16T11:50:45.913Z,95181.53
2023-05-16T11:51:49.994Z,95185.47
2023-05-16T11:52:58.079Z,95184.09
2023-05-16T11:54:05.344Z,95181.41
2023-05-16T11:55:11.372Z,95183.47
2023-05-16T11:56:15.252Z,95182.38
2023-05-16T11:57:19.871Z,95192.50
2023-05-16T11:58:24.167Z,95184.94
2023-05-16T11:59:28.064Z,95185.44
2023-05-16T12:00:31.221Z,95187.00
2023-05-16T12:01:37.553Z,95188.59
2023-05-16T12:02:40.438Z,95193.34
2023-05-16T12:03:44.534Z,95194.94
2023-05-16T12:04:50.687Z,95192.28
2023-05-16T12:05:57.515Z,95201.09
2023-05-16T12:07:01.850Z,95197.63
2023-05-16T12:08:06.922Z,95200.31
2023-05-16T12:09:18.181Z,95201.88
2023-05-16T12:10:23.213Z,95204.06
2023-05-16T12:11:26.245Z,95198.09
2023-05-16T12:12:31.368Z,95193.72
2023-05-16T12:13:35.724Z,95198.47
2023-05-16T12:14:39.830Z,95202.94
2023-05-16T12:15:43.517Z,95202.00
2023-05-16T12:16:49.553Z,95197.75
2023-05-16T12:17:53.891Z,95200.56
2023-05-16T12:18:58.080Z,95204.44
2023-05-16T12:20:02.437Z,95199.88
2023-05-16T12:21:08.193Z,95205.72
2023-05-16T12:22:18.854Z,95199.56
2023-05-16T12:23:22.782Z,95204.63
2023-05-16T12:24:32.400Z,95206.38
2023-05-16T12:25:38.017Z,95206.88
2023-05-16T12:26:44.828Z,95208.78
2023-05-16T12:27:47.601Z,95213.53
2023-05-16T12:28:57.792Z,95208.34
2023-05-16T12:30:01.902Z,95207.75
2023-05-16T12:31:06.689Z,95213.28
2023-05-16T12:32:11.987Z,95214.28
2023-05-16T12:33:17.389Z,95211.78
2023-05-16T12:34:23.488Z,95210.66
2023-05-16T12:35:31.101Z,95209.28
2023-05-16T12:36:37.115Z,95205.81
2023-05-16T12:37:39.796Z,95210.03
2023-05-16T12:38:47.853Z,95213.53
2023-05-16T12:39:53.090Z,95212.72
2023-05-16T12:41:00.583Z,95208.66
2023-05-16T12:42:09.765Z,95211.84
2023-05-16T12:43:17.966Z,95210.78
2023-05-16T12:44:23.763Z,95213.13
2023-05-16T12:45:28.437Z,95215.81